Time;durP1;ratioP1;P1;durP2;ratioP2;P2;SDS_P1;SDS_P2;PMS_P1;PMS_P2;Temp;Humidity;BMP_temperature;BMP_pressure;BME280_temperature;BME280_humidity;BME280_pressure;Samples;Min_cycle;Max_cycle;Signal;HPM_P1;HPM_P2
2022/04/12 00:00:27;;;;;;;7.25;5.45;;;12.50;51.10;;;;;;5104486;27;20033;-59
2022/04/12 00:02:53;;;;;;;5.85;5.03;;;12.50;51.10;;;;;;5104468;27;20111;-58
2022/04/12 00:05:19;;;;;;;6.35;5.25;;;12.50;51.10;;;;;;5107275;28;20130;-59
2022/04/12 00:07:44;;;;;;;5.85;5.03;;;12.40;51.20;;;;;;5090776;28;20082;-59
2022/04/12 00:10:14;;;;;;;6.85;5.50;;;12.40;51.10;;;;;;5110993;27;20398;-59
2022/04/12 00:12:40;;;;;;;7.88;5.32;;;12.40;51.20;;;;;;5089692;28;20790;-59
2022/04/12 00:15:07;;;;;;;8.85;6.00;;;12.40;51.40;;;;;;5093249;27;20030;-59
2022/04/12 00:20:19;;;;;;;6.05;5.00;;;12.40;51.40;;;;;;5105260;28;20097;-59
2022/04/12 00:22:45;;;;;;;8.43;5.40;;;12.30;51.50;;;;;;5108544;27;20028;-59
2022/04/12 00:25:11;;;;;;;6.53;5.00;;;12.30;51.60;;;;;;5109546;28;20471;-59
2022/04/12 00:27:39;;;;;;;6.50;4.80;;;12.30;51.70;;;;;;5089189;28;20390;-58
2022/04/12 00:30:06;;;;;;;7.85;5.25;;;12.30;51.70;;;;;;5114545;27;20023;-58
2022/04/12 00:32:33;;;;;;;6.13;5.50;;;12.20;51.60;;;;;;5111841;27;20024;-59
2022/04/12 00:34:59;;;;;;;5.97;4.90;;;12.20;52.00;;;;;;5113039;27;20020;-58
2022/04/12 00:37:25;;;;;;;7.78;5.40;;;12.20;52.10;;;;;;5112052;27;20036;-59
2022/04/12 00:39:51;;;;;;;6.45;5.38;;;12.20;52.10;;;;;;5112631;27;20039;-58
2022/04/12 00:42:17;;;;;;;7.25;5.43;;;12.20;52.10;;;;;;5111272;28;20102;-58
2022/04/12 00:44:42;;;;;;;5.75;5.10;;;12.10;52.20;;;;;;5107686;28;20024;-59
2022/04/12 00:47:08;;;;;;;7.85;5.70;;;12.10;52.10;;;;;;5111003;27;20106;-59
2022/04/12 00:49:34;;;;;;;7.28;4.70;;;12.10;52.20;;;;;;5109917;28;20493;-59
2022/04/12 00:52:00;;;;;;;6.07;4.97;;;12.00;52.10;;;;;;5111257;28;20028;-59
2022/04/12 00:54:26;;;;;;;7.78;5.28;;;12.00;52.10;;;;;;5102701;27;20028;-59
2022/04/12 00:56:52;;;;;;;6.35;5.20;;;12.00;52.20;;;;;;5113111;27;20031;-59
2022/04/12 00:59:19;;;;;;;6.70;5.03;;;12.00;52.40;;;;;;5106004;27;20095;-60
2022/04/12 01:01:45;;;;;;;6.00;5.18;;;12.00;52.40;;;;;;5105497;27;20363;-59
2022/04/12 01:04:10;;;;;;;7.35;5.30;;;12.00;52.40;;;;;;5101100;28;20020;-59
2022/04/12 01:06:37;;;;;;;6.20;5.28;;;11.90;52.40;;;;;;5101563;27;20024;-59
2022/04/12 01:09:05;;;;;;;6.55;4.80;;;11.90;52.40;;;;;;5098913;27;20147;-59
2022/04/12 01:11:33;;;;;;;6.43;4.97;;;11.90;52.50;;;;;;5085216;28;20534;-60
2022/04/12 01:13:59;;;;;;;6.47;4.95;;;11.90;52.60;;;;;;5109922;27;20031;-59
2022/04/12 01:16:24;;;;;;;8.20;4.95;;;11.80;52.50;;;;;;5086904;28;20028;-60
2022/04/12 01:18:50;;;;;;;6.45;4.70;;;11.80;52.60;;;;;;5099453;27;20028;-60
2022/04/12 01:21:16;;;;;;;5.15;4.65;;;11.70;52.70;;;;;;5088294;28;20031;-59
2022/04/12 01:24:01;;;;;;;6.50;4.95;;;11.70;52.80;;;;;;5108713;27;20024;-60
2022/04/12 01:26:27;;;;;;;8.13;5.57;;;11.70;52.80;;;;;;5096200;27;20047;-60
2022/04/12 01:28:52;;;;;;;6.90;5.05;;;11.70;52.90;;;;;;5094529;27;20055;-59
2022/04/12 01:31:18;;;;;;;7.75;5.70;;;11.70;52.90;;;;;;5093995;27;20428;-59
2022/04/12 01:33:44;;;;;;;7.00;5.15;;;11.70;53.20;;;;;;5100002;27;20028;-59
2022/04/12 01:36:10;;;;;;;6.53;5.40;;;11.70;53.50;;;;;;5077403;28;20126;-60
2022/04/12 01:38:35;;;;;;;6.97;5.55;;;11.70;54.00;;;;;;5099059;28;20098;-58
2022/04/12 01:41:02;;;;;;;7.63;5.15;;;11.60;53.40;;;;;;5093700;28;20056;-59
2022/04/12 01:43:28;;;;;;;6.55;4.72;;;11.60;53.40;;;;;;5075865;28;20035;-59
2022/04/12 01:45:54;;;;;;;6.18;5.03;;;11.60;53.50;;;;;;5073478;28;20035;-59
2022/04/12 01:48:20;;;;;;;7.75;5.55;;;11.60;53.60;;;;;;5095234;27;20043;-59
2022/04/12 01:50:46;;;;;;;7.47;5.28;;;11.50;53.50;;;;;;5100113;28;20031;-59
2022/04/12 01:53:11;;;;;;;7.28;5.18;;;11.50;53.60;;;;;;5103652;28;20077;-59
2022/04/12 01:55:37;;;;;;;8.02;5.10;;;11.50;53.70;;;;;;5106408;28;20538;-59
2022/04/12 01:58:04;;;;;;;6.03;4.95;;;11.50;53.70;;;;;;5075594;28;20039;-59
2022/04/12 02:00:30;;;;;;;7.40;5.20;;;11.50;53.80;;;;;;5107959;28;20036;-60
2022/04/12 02:02:56;;;;;;;8.13;5.05;;;11.40;54.00;;;;;;5103559;27;20031;-59
2022/04/12 02:05:21;;;;;;;7.22;5.28;;;11.40;53.90;;;;;;5104112;28;20034;-59
2022/04/12 02:07:47;;;;;;;6.50;5.10;;;11.40;54.10;;;;;;5099939;28;20099;-60
2022/04/12 02:10:13;;;;;;;6.28;4.95;;;11.40;54.10;;;;;;5110248;28;20108;-60
2022/04/12 02:12:39;;;;;;;6.60;5.22;;;11.30;54.00;;;;;;5110311;28;20039;-60
2022/04/12 02:15:05;;;;;;;6.40;5.15;;;11.30;54.40;;;;;;5110663;28;20435;-59
2022/04/12 02:17:31;;;;;;;7.18;4.82;;;11.30;54.70;;;;;;5110454;28;20509;-59
2022/04/12 02:19:57;;;;;;;6.75;4.75;;;11.30;54.70;;;;;;5111001;28;20032;-60
2022/04/12 02:22:23;;;;;;;7.32;4.63;;;11.30;54.70;;;;;;5102141;28;20280;-59
2022/04/12 02:24:48;;;;;;;6.63;5.00;;;11.30;54.80;;;;;;5109809;27;20466;-59
2022/04/12 02:27:14;;;;;;;5.53;4.80;;;11.30;54.90;;;;;;5109060;28;20138;-59
2022/04/12 02:29:40;;;;;;;6.00;5.30;;;11.30;54.90;;;;;;5107405;27;20034;-59
2022/04/12 02:32:06;;;;;;;5.35;4.35;;;11.20;54.90;;;;;;5072558;28;20115;-59
2022/04/12 02:34:32;;;;;;;5.43;4.22;;;11.20;54.80;;;;;;5099045;28;20035;-59
2022/04/12 02:36:58;;;;;;;7.40;4.80;;;11.20;54.90;;;;;;5096020;27;20032;-59
2022/04/12 02:39:24;;;;;;;5.38;4.50;;;11.10;54.80;;;;;;5097632;28;20052;-59
2022/04/12 02:41:50;;;;;;;6.25;4.55;;;11.10;54.80;;;;;;5103917;28;20580;-60
2022/04/12 02:44:17;;;;;;;5.32;4.43;;;11.10;55.00;;;;;;5081564;28;20028;-60
2022/04/12 02:46:42;;;;;;;5.55;4.28;;;11.10;54.90;;;;;;5110152;28;20119;-60
2022/04/12 02:49:08;;;;;;;5.72;4.65;;;11.10;55.00;;;;;;5106723;28;20106;-59
2022/04/12 02:51:34;;;;;;;8.10;4.65;;;11.10;55.10;;;;;;5091533;28;20123;-60
2022/04/12 02:53:59;;;;;;;6.05;4.72;;;11.10;55.30;;;;;;5069686;28;20032;-59
2022/04/12 02:56:25;;;;;;;7.22;4.70;;;11.10;55.10;;;;;;5106704;28;20527;-59
2022/04/12 02:58:51;;;;;;;5.45;4.78;;;11.00;55.20;;;;;;5108933;28;20390;-59
2022/04/12 03:01:16;;;;;;;6.38;4.22;;;11.00;55.50;;;;;;5079406;28;20039;-60
2022/04/12 03:03:42;;;;;;;6.22;4.55;;;11.00;55.40;;;;;;5095422;27;20459;-60
2022/04/12 03:06:08;;;;;;;6.07;4.55;;;10.90;55.40;;;;;;5105300;28;20035;-59
2022/04/12 03:08:33;;;;;;;6.68;4.43;;;10.90;55.50;;;;;;5108575;27;20043;-59
2022/04/12 03:10:59;;;;;;;5.75;4.60;;;10.90;55.40;;;;;;5077977;28;20054;-60
2022/04/12 03:13:25;;;;;;;5.78;4.45;;;10.90;55.60;;;;;;5095401;27;20020;-59
2022/04/12 03:15:50;;;;;;;4.88;4.32;;;10.90;55.60;;;;;;5098702;28;20032;-60
2022/04/12 03:18:17;;;;;;;5.22;4.63;;;10.80;55.60;;;;;;5092968;28;20032;-60
2022/04/12 03:20:43;;;;;;;7.30;4.88;;;10.80;55.60;;;;;;5097719;27;20620;-60
2022/04/12 03:23:09;;;;;;;6.32;5.15;;;10.80;55.70;;;;;;5095535;28;20548;-60
2022/04/12 03:25:35;;;;;;;5.30;4.30;;;10.80;55.70;;;;;;5089976;28;20024;-60
2022/04/12 03:28:01;;;;;;;5.13;4.32;;;10.80;55.70;;;;;;5095110;28;20028;-60
2022/04/12 03:30:27;;;;;;;6.78;4.90;;;10.80;55.90;;;;;;5092593;28;20036;-59
2022/04/12 03:32:52;;;;;;;6.85;4.68;;;10.70;56.00;;;;;;5100512;28;20511;-59
2022/04/12 03:35:19;;;;;;;5.07;4.43;;;10.70;56.00;;;;;;5092583;28;20034;-60
2022/04/12 03:37:45;;;;;;;6.30;4.50;;;10.70;56.00;;;;;;5098847;28;20082;-59
2022/04/12 03:40:11;;;;;;;6.53;4.55;;;10.70;56.70;;;;;;5099776;28;20504;-59
2022/04/12 03:42:37;;;;;;;5.80;4.38;;;10.60;56.10;;;;;;5102926;28;20031;-59
2022/04/12 03:45:03;;;;;;;5.60;4.60;;;10.60;56.30;;;;;;5088656;28;20482;-59
2022/04/12 03:47:29;;;;;;;6.95;4.43;;;10.60;56.40;;;;;;5091853;28;20030;-59
2022/04/12 03:49:54;;;;;;;8.98;5.55;;;10.60;56.40;;;;;;5108111;28;20470;-59
2022/04/12 03:52:20;;;;;;;7.95;4.80;;;10.60;56.50;;;;;;5087426;28;20117;-59
2022/04/12 03:54:46;;;;;;;5.13;4.47;;;10.60;56.40;;;;;;5118428;28;20028;-59
2022/04/12 03:57:11;;;;;;;7.35;4.88;;;10.50;56.40;;;;;;5117879;28;20040;-59
2022/04/12 03:59:37;;;;;;;5.20;4.45;;;10.50;56.60;;;;;;5108027;28;20410;-59
2022/04/12 04:02:03;;;;;;;5.22;4.13;;;10.50;56.60;;;;;;5111909;28;20032;-59
2022/04/12 04:04:28;;;;;;;6.25;4.78;;;10.50;56.70;;;;;;5090006;28;20031;-59
2022/04/12 04:06:54;;;;;;;5.05;4.25;;;10.50;56.70;;;;;;5107426;28;20028;-59
2022/04/12 04:09:21;;;;;;;6.72;4.30;;;10.50;56.70;;;;;;5105031;28;20034;-59
2022/04/12 04:11:48;;;;;;;5.38;4.53;;;10.40;56.70;;;;;;5107702;28;20039;-59
2022/04/12 04:14:15;;;;;;;6.20;4.60;;;10.40;56.80;;;;;;5105807;28;20034;-59
2022/04/12 04:16:41;;;;;;;6.43;4.35;;;10.40;56.90;;;;;;5109736;28;20074;-59
2022/04/12 04:19:09;;;;;;;5.25;4.40;;;10.40;57.00;;;;;;5104410;28;20490;-59
2022/04/12 04:21:36;;;;;;;5.30;4.40;;;10.40;57.10;;;;;;5125002;28;20472;-59
2022/04/12 04:24:02;;;;;;;5.97;4.97;;;10.40;57.20;;;;;;5103783;28;20027;-59
2022/04/12 04:26:28;;;;;;;6.70;5.30;;;10.40;57.20;;;;;;5106256;28;20035;-60
2022/04/12 04:28:53;;;;;;;9.15;5.13;;;10.30;57.30;;;;;;5105122;28;20394;-60
2022/04/12 04:31:19;;;;;;;5.78;4.72;;;10.30;57.30;;;;;;5104465;28;20474;-59
2022/04/12 04:33:45;;;;;;;6.82;4.53;;;10.30;57.50;;;;;;5104513;28;20027;-60
2022/04/12 04:36:10;;;;;;;6.18;4.10;;;10.30;57.50;;;;;;5086400;28;20094;-60
2022/04/12 04:38:36;;;;;;;6.28;4.40;;;10.30;57.40;;;;;;5086939;28;20082;-60
2022/04/12 04:41:02;;;;;;;7.43;4.72;;;10.30;57.50;;;;;;5110526;28;20042;-61
2022/04/12 04:43:27;;;;;;;5.13;4.45;;;10.20;57.50;;;;;;5111416;28;20034;-59
2022/04/12 04:45:53;;;;;;;5.68;4.40;;;10.20;57.60;;;;;;5118023;27;20447;-59
2022/04/12 04:48:19;;;;;;;7.93;4.90;;;10.20;57.80;;;;;;5111790;27;20035;-59
2022/04/12 04:50:45;;;;;;;7.05;5.15;;;10.20;57.70;;;;;;5118481;27;20028;-59
2022/04/12 04:53:10;;;;;;;6.00;4.65;;;10.20;57.80;;;;;;5106683;28;20035;-60
2022/04/12 04:55:37;;;;;;;6.82;4.90;;;10.20;57.90;;;;;;5090779;28;20042;-59
2022/04/12 04:58:04;;;;;;;5.03;4.53;;;10.20;57.90;;;;;;5092666;28;20041;-59
2022/04/12 05:00:32;;;;;;;8.40;4.75;;;10.20;58.00;;;;;;5097807;28;20451;-59
2022/04/12 05:02:58;;;;;;;5.78;4.85;;;10.10;58.10;;;;;;5109697;27;20028;-60
2022/04/12 05:05:25;;;;;;;6.07;4.53;;;10.20;58.30;;;;;;5099499;28;20036;-59
2022/04/12 05:07:53;;;;;;;7.32;5.10;;;10.20;58.30;;;;;;5104919;27;20049;-59
2022/04/12 05:10:20;;;;;;;6.22;5.00;;;10.10;58.20;;;;;;5109263;27;20023;-59
2022/04/12 05:12:46;;;;;;;9.50;5.25;;;10.10;58.40;;;;;;5108492;27;20465;-59
2022/04/12 05:15:12;;;;;;;9.25;5.43;;;10.10;58.60;;;;;;5111971;27;20024;-59
2022/04/12 05:17:37;;;;;;;7.13;4.55;;;10.20;58.60;;;;;;5105752;27;20028;-59
2022/04/12 05:20:09;;;;;;;6.68;4.80;;;10.10;58.60;;;;;;5108408;27;20032;-59
2022/04/12 05:22:35;;;;;;;7.13;5.13;;;10.10;58.70;;;;;;5100627;27;20054;-59
2022/04/12 05:25:00;;;;;;;7.35;5.38;;;10.20;58.90;;;;;;5105452;27;20023;-59
2022/04/12 05:27:31;;;;;;;6.45;5.03;;;10.20;58.90;;;;;;5104014;28;20032;-59
2022/04/12 05:29:58;;;;;;;6.95;5.28;;;10.20;59.10;;;;;;5116006;27;20110;-59
2022/04/12 05:32:24;;;;;;;7.60;5.28;;;10.20;59.30;;;;;;5086355;28;20438;-59
2022/04/12 05:34:50;;;;;;;6.50;5.07;;;10.20;59.30;;;;;;5104012;27;20126;-59
2022/04/12 05:37:15;;;;;;;8.43;4.95;;;10.20;59.20;;;;;;5088071;28;20036;-59
2022/04/12 05:39:41;;;;;;;6.32;4.90;;;10.20;59.20;;;;;;5108878;28;20097;-59
2022/04/12 05:42:07;;;;;;;9.32;5.05;;;10.20;59.20;;;;;;5108681;27;20048;-60
2022/04/12 05:44:33;;;;;;;6.65;4.78;;;10.20;59.10;;;;;;5104817;28;20045;-60
2022/04/12 05:47:00;;;;;;;7.43;5.20;;;10.20;59.10;;;;;;5105735;27;20036;-60
2022/04/12 05:49:26;;;;;;;7.70;4.97;;;10.30;59.00;;;;;;5107215;28;20031;-60
2022/04/12 05:51:52;;;;;;;6.80;5.00;;;10.30;59.10;;;;;;5086995;28;20050;-60
2022/04/12 05:54:17;;;;;;;9.40;5.45;;;10.30;58.90;;;;;;5107512;28;20114;-60
2022/04/12 05:56:43;;;;;;;6.95;4.97;;;10.30;58.90;;;;;;5109239;28;20332;-59
2022/04/12 05:59:09;;;;;;;7.15;5.45;;;10.30;58.90;;;;;;5110429;27;20032;-59
2022/04/12 06:01:35;;;;;;;8.43;5.35;;;10.30;58.90;;;;;;5104038;28;20035;-59
2022/04/12 06:04:01;;;;;;;7.72;5.13;;;10.30;59.00;;;;;;5109276;27;20378;-59
2022/04/12 06:06:27;;;;;;;8.05;5.18;;;10.30;58.90;;;;;;5091666;28;20023;-59
2022/04/12 06:08:53;;;;;;;6.75;5.00;;;10.40;59.20;;;;;;5106013;28;20487;-59
2022/04/12 06:11:19;;;;;;;7.35;5.28;;;10.40;59.30;;;;;;5114174;27;20059;-59
2022/04/12 06:13:45;;;;;;;7.03;5.43;;;10.40;59.20;;;;;;5103179;28;20067;-60
2022/04/12 06:16:10;;;;;;;6.70;4.80;;;10.40;59.40;;;;;;5087910;28;20032;-60
2022/04/12 06:18:36;;;;;;;6.68;5.97;;;10.40;59.20;;;;;;5106175;27;20038;-60
2022/04/12 06:21:02;;;;;;;7.57;5.55;;;10.40;59.20;;;;;;5108338;27;20046;-59
2022/04/12 06:23:28;;;;;;;6.30;5.00;;;10.40;59.10;;;;;;5106190;27;20039;-60
2022/04/12 06:25:55;;;;;;;7.82;5.07;;;10.40;59.00;;;;;;5101620;28;20024;-60
2022/04/12 06:28:21;;;;;;;6.57;5.25;;;10.40;59.10;;;;;;5102543;28;20482;-60
2022/04/12 06:30:50;;;;;;;6.60;5.20;;;10.40;59.10;;;;;;5096216;27;20584;-60
2022/04/12 06:33:15;;;;;;;7.93;5.97;;;10.40;59.10;;;;;;5105604;28;20051;-60
2022/04/12 06:35:41;;;;;;;7.15;5.55;;;10.40;59.20;;;;;;5088196;28;20079;-60
2022/04/12 06:38:08;;;;;;;7.55;5.93;;;10.40;59.70;;;;;;5088287;27;20441;-59
2022/04/12 06:40:35;;;;;;;7.85;5.55;;;10.40;59.20;;;;;;5089243;28;20488;-60
2022/04/12 06:43:01;;;;;;;9.05;6.28;;;10.40;59.20;;;;;;5102320;28;21081;-61
2022/04/12 06:45:27;;;;;;;6.60;5.80;;;10.50;59.20;;;;;;5082375;28;20059;-60
2022/04/12 06:47:55;;;;;;;7.03;5.38;;;10.50;59.20;;;;;;5099500;28;20024;-60
2022/04/12 06:50:21;;;;;;;7.63;5.85;;;10.50;59.20;;;;;;5101344;27;20459;-60
2022/04/12 06:52:47;;;;;;;7.38;6.00;;;10.50;59.20;;;;;;5080877;28;20077;-60
2022/04/12 06:55:12;;;;;;;7.57;5.72;;;10.60;59.20;;;;;;5100454;27;20453;-60
2022/04/12 06:57:38;;;;;;;7.15;5.80;;;10.60;59.10;;;;;;5100244;28;20110;-59
2022/04/12 07:00:06;;;;;;;11.00;6.03;;;10.70;59.20;;;;;;5081160;28;20032;-59
2022/04/12 07:02:32;;;;;;;9.07;5.95;;;10.70;59.10;;;;;;5098705;27;20030;-59
2022/04/12 07:04:58;;;;;;;7.60;6.28;;;10.80;59.00;;;;;;5083545;28;20023;-60
2022/04/12 07:07:24;;;;;;;10.45;6.05;;;10.80;59.20;;;;;;5101992;28;20026;-60
2022/04/12 07:09:50;;;;;;;6.45;5.53;;;10.80;58.90;;;;;;5103540;28;20119;-59
2022/04/12 07:12:16;;;;;;;8.10;6.00;;;10.80;59.00;;;;;;5106664;27;20111;-60
2022/04/12 07:14:41;;;;;;;7.88;5.35;;;10.90;59.10;;;;;;5100551;28;20043;-60
2022/04/12 07:17:07;;;;;;;7.50;5.75;;;10.90;59.10;;;;;;5100292;28;20387;-60
2022/04/12 07:19:33;;;;;;;7.50;5.97;;;10.90;59.00;;;;;;5107303;28;20039;-60
2022/04/12 07:21:58;;;;;;;7.45;5.57;;;10.90;59.00;;;;;;5110848;27;20047;-60
2022/04/12 07:24:24;;;;;;;6.63;5.57;;;10.90;59.10;;;;;;5098306;27;20092;-60
2022/04/12 07:26:50;;;;;;;7.05;5.30;;;10.90;59.10;;;;;;5108109;27;20055;-60
2022/04/12 07:29:16;;;;;;;8.05;6.13;;;10.90;59.20;;;;;;5112952;27;20270;-59
2022/04/12 07:31:42;;;;;;;9.00;5.50;;;11.00;59.20;;;;;;5087429;28;20059;-59
2022/04/12 07:34:09;;;;;;;11.07;9.93;;;11.00;59.20;;;;;;5104002;27;20089;-59
2022/04/12 07:36:39;;;;;;;8.80;7.45;;;11.10;59.30;;;;;;5106931;28;20542;-60
2022/04/12 07:39:06;;;;;;;8.88;6.75;;;11.10;59.50;;;;;;5104258;28;20490;-60
2022/04/12 07:41:32;;;;;;;8.80;6.13;;;11.20;59.50;;;;;;5103825;28;20040;-60
2022/04/12 07:43:58;;;;;;;7.88;5.63;;;11.30;59.60;;;;;;5107345;28;20020;-59
2022/04/12 07:46:24;;;;;;;8.18;5.40;;;11.40;59.50;;;;;;5090809;28;20106;-60
2022/04/12 07:48:49;;;;;;;8.52;5.80;;;11.40;59.50;;;;;;5105304;28;20463;-59
2022/04/12 07:51:15;;;;;;;8.30;6.00;;;11.40;59.70;;;;;;5108764;28;20032;-60
2022/04/12 07:53:41;;;;;;;6.63;5.60;;;11.50;59.80;;;;;;5107358;28;20050;-60
2022/04/12 07:56:07;;;;;;;7.95;5.72;;;11.60;59.90;;;;;;5106668;28;20078;-59
2022/04/12 07:58:33;;;;;;;7.47;6.13;;;11.60;60.00;;;;;;5101755;28;20027;-59
2022/04/12 08:00:59;;;;;;;6.95;6.05;;;11.70;60.00;;;;;;5107598;28;20027;-59
2022/04/12 08:03:25;;;;;;;8.18;6.05;;;11.80;60.50;;;;;;5102515;28;20038;-59
2022/04/12 08:05:51;;;;;;;8.50;6.20;;;11.80;60.60;;;;;;5105591;28;20024;-59
2022/04/12 08:08:17;;;;;;;7.60;5.72;;;11.90;60.50;;;;;;5100679;28;20032;-60
2022/04/12 08:10:43;;;;;;;8.88;6.18;;;12.00;60.50;;;;;;5107554;28;20035;-60
2022/04/12 08:13:09;;;;;;;8.23;6.00;;;12.10;60.50;;;;;;5091765;28;20027;-59
2022/04/12 08:15:36;;;;;;;7.10;5.32;;;12.20;60.40;;;;;;5100542;28;20038;-59
2022/04/12 08:18:03;;;;;;;7.07;5.60;;;12.30;60.50;;;;;;5097114;28;20031;-60
2022/04/12 08:20:29;;;;;;;9.35;6.18;;;12.40;60.30;;;;;;5096721;28;20020;-59
2022/04/12 08:22:56;;;;;;;6.22;5.30;;;12.50;60.20;;;;;;5088916;28;20080;-59
2022/04/12 08:25:24;;;;;;;8.73;5.72;;;12.60;60.20;;;;;;5101687;27;20032;-59
2022/04/12 08:27:49;;;;;;;6.47;4.88;;;12.80;60.00;;;;;;5100524;28;20431;-60
2022/04/12 08:30:15;;;;;;;8.20;5.20;;;12.90;59.90;;;;;;5104535;28;20062;-60
2022/04/12 08:32:41;;;;;;;6.97;5.97;;;13.00;59.80;;;;;;5110408;28;20424;-60
2022/04/12 08:35:08;;;;;;;7.32;5.85;;;13.10;59.90;;;;;;5102285;28;20052;-60
2022/04/12 08:37:34;;;;;;;8.70;6.38;;;13.20;59.70;;;;;;5101353;28;20513;-59
2022/04/12 08:39:59;;;;;;;7.10;5.45;;;13.30;58.90;;;;;;5102969;28;20418;-59
2022/04/12 08:42:25;;;;;;;9.38;5.70;;;13.30;58.60;;;;;;5104255;28;20084;-58
2022/04/12 08:44:52;;;;;;;7.20;4.82;;;13.40;58.00;;;;;;5103711;28;20030;-60
2022/04/12 08:47:19;;;;;;;8.80;5.43;;;13.50;58.10;;;;;;5099009;28;20438;-59
2022/04/12 08:49:45;;;;;;;7.70;5.00;;;13.50;57.80;;;;;;5106027;28;20020;-59
2022/04/12 08:52:12;;;;;;;8.50;5.43;;;13.60;57.90;;;;;;5095132;28;20024;-59
2022/04/12 08:54:43;;;;;;;7.85;4.90;;;13.70;57.70;;;;;;5103891;28;20028;-59
2022/04/12 08:57:10;;;;;;;8.13;5.05;;;13.80;57.90;;;;;;5105010;28;20031;-59
2022/04/12 08:59:36;;;;;;;8.52;6.03;;;13.90;57.80;;;;;;5103370;28;20031;-59
2022/04/12 09:02:03;;;;;;;10.02;5.05;;;14.00;57.70;;;;;;5082023;28;20039;-59
2022/04/12 09:04:29;;;;;;;9.32;5.78;;;14.10;57.50;;;;;;5104403;27;20039;-59
2022/04/12 09:06:58;;;;;;;12.65;5.13;;;14.20;57.50;;;;;;5093234;28;20386;-59
2022/04/12 09:09:30;;;;;;;8.05;5.70;;;14.20;57.20;;;;;;5099226;27;20118;-59
2022/04/12 09:12:06;;;;;;;12.82;6.25;;;14.30;57.40;;;;;;5089706;28;20067;-59
2022/04/12 09:14:52;;;;;;;8.10;5.57;;;14.30;56.90;;;;;;5091461;27;20020;-59
2022/04/12 09:17:37;;;;;;;6.82;5.68;;;14.30;56.70;;;;;;5102058;27;20028;-59
2022/04/12 09:20:17;;;;;;;6.38;5.32;;;14.30;57.10;;;;;;5098584;28;21030;-59
2022/04/12 09:22:43;;;;;;;7.65;5.63;;;14.40;57.30;;;;;;5103769;28;20046;-59
2022/04/12 09:25:10;;;;;;;7.18;5.05;;;14.40;57.30;;;;;;5098649;28;20020;-59
2022/04/12 09:27:37;;;;;;;6.32;5.20;;;14.50;57.20;;;;;;5090969;28;20401;-59
2022/04/12 09:30:09;;;;;;;6.85;5.15;;;14.60;57.00;;;;;;5098142;28;20326;-59
2022/04/12 09:32:36;;;;;;;;;;;14.70;57.10;;;;;;5122138;27;20031;-60
2022/04/12 09:35:03;;;;;;;7.22;5.15;;;14.90;57.00;;;;;;5119850;27;19956;-60
2022/04/12 09:37:35;;;;;;;8.95;5.20;;;15.00;57.00;;;;;;5091874;28;20444;-60
2022/04/12 09:40:02;;;;;;;8.18;5.90;;;15.10;57.00;;;;;;5102312;28;20040;-60
2022/04/12 09:42:54;;;;;;;12.25;6.22;;;15.10;57.40;;;;;;5092478;28;20034;-60
2022/04/12 09:45:28;;;;;;;9.45;6.00;;;15.20;56.60;;;;;;5091258;28;20047;-59
2022/04/12 09:47:56;;;;;;;8.13;6.03;;;15.30;56.30;;;;;;5110560;28;20063;-60
2022/04/12 09:50:27;;;;;;;7.40;6.00;;;15.40;56.00;;;;;;5109253;27;20037;-60
2022/04/12 09:52:57;;;;;;;9.57;6.65;;;15.50;56.10;;;;;;5113728;27;20390;-61
2022/04/12 09:55:41;;;;;;;8.48;5.60;;;15.50;56.10;;;;;;5101676;27;20028;-60
2022/04/12 09:58:13;;;;;;;8.02;5.85;;;15.70;56.30;;;;;;5102548;27;20031;-60
2022/04/12 10:00:39;;;;;;;7.70;5.45;;;15.80;56.20;;;;;;5102770;27;20542;-60
2022/04/12 10:03:07;;;;;;;8.40;5.80;;;15.90;56.00;;;;;;5107973;27;20055;-60
2022/04/12 10:05:33;;;;;;;6.78;5.53;;;15.90;56.00;;;;;;5121575;27;20024;-60
2022/04/12 10:08:02;;;;;;;6.38;5.38;;;16.10;55.80;;;;;;5119984;27;20359;-60
2022/04/12 10:10:28;;;;;;;8.38;5.95;;;16.20;55.80;;;;;;5103138;28;20039;-60
2022/04/12 10:12:55;;;;;;;7.80;5.57;;;16.30;55.30;;;;;;5110111;27;20086;-60
2022/04/12 10:15:22;;;;;;;9.35;6.32;;;16.50;55.10;;;;;;5096062;28;20034;-60
2022/04/12 10:17:52;;;;;;;8.57;6.30;;;16.50;54.90;;;;;;5103021;27;20119;-60
2022/04/12 10:20:19;;;;;;;7.60;5.43;;;16.60;54.60;;;;;;5087734;28;20028;-60
2022/04/12 10:22:46;;;;;;;8.07;5.70;;;16.70;54.70;;;;;;5080088;28;20028;-60
2022/04/12 10:25:21;;;;;;;9.93;5.90;;;16.80;54.50;;;;;;5099924;28;20029;-60
2022/04/12 10:27:48;;;;;;;6.50;4.82;;;16.90;54.30;;;;;;5108667;28;20126;-60
2022/04/12 10:30:21;;;;;;;6.82;5.30;;;17.00;54.20;;;;;;5093191;28;20424;-60
2022/04/12 10:33:04;;;;;;;8.00;5.68;;;17.10;54.20;;;;;;5107648;28;20066;-60
2022/04/12 10:35:42;;;;;;;8.45;5.55;;;17.30;54.10;;;;;;5108873;28;20322;-60
2022/04/12 10:38:12;;;;;;;11.32;6.93;;;17.40;53.90;;;;;;5103218;28;20134;-60
2022/04/12 10:40:42;;;;;;;7.78;6.50;;;17.50;52.70;;;;;;5108567;27;20121;-60
2022/04/12 10:43:10;;;;;;;8.93;5.60;;;17.50;52.40;;;;;;5107289;28;20031;-60
2022/04/12 10:45:44;;;;;;;6.55;4.97;;;17.60;52.90;;;;;;5094601;28;20015;-60
2022/04/12 10:48:18;;;;;;;6.57;5.03;;;17.70;52.80;;;;;;5098660;27;20534;-60
2022/04/12 10:50:47;;;;;;;7.60;5.10;;;17.90;52.70;;;;;;5095876;28;20020;-60
2022/04/12 10:53:13;;;;;;;8.35;4.78;;;18.10;52.30;;;;;;5106575;28;20040;-60
2022/04/12 10:55:42;;;;;;;7.30;4.90;;;18.20;52.20;;;;;;5082946;28;20043;-60
2022/04/12 10:58:14;;;;;;;7.35;5.13;;;18.30;52.10;;;;;;5101334;28;20027;-60
2022/04/12 11:00:44;;;;;;;5.85;4.50;;;18.50;52.00;;;;;;5088909;28;20068;-60
2022/04/12 11:03:11;;;;;;;6.35;4.63;;;18.60;51.60;;;;;;5090414;27;20015;-60
2022/04/12 11:05:37;;;;;;;5.68;4.18;;;18.70;51.40;;;;;;5097220;27;20104;-60
2022/04/12 11:08:14;;;;;;;9.43;4.43;;;18.80;51.20;;;;;;5116138;27;20105;-60
2022/04/12 11:11:00;;;;;;;5.97;4.20;;;18.90;50.70;;;;;;5109117;28;20050;-60
2022/04/12 11:13:32;;;;;;;7.45;4.28;;;19.10;50.50;;;;;;5096799;28;20263;-60
2022/04/12 11:16:07;;;;;;;5.47;3.53;;;19.20;50.00;;;;;;5104118;28;20032;-60
2022/04/12 11:18:49;;;;;;;8.23;4.68;;;19.30;49.60;;;;;;5099341;28;20039;-61
2022/04/12 11:21:15;;;;;;;6.13;3.92;;;19.40;48.50;;;;;;5105910;28;20035;-60
2022/04/12 11:23:44;;;;;;;9.98;4.07;;;19.50;48.30;;;;;;5107196;27;20084;-60
2022/04/12 11:26:35;;;;;;;6.63;3.50;;;19.50;48.10;;;;;;5091161;27;20051;-61
2022/04/12 11:29:02;;;;;;;5.68;3.63;;;19.40;48.20;;;;;;5107155;27;20023;-60
2022/04/12 11:31:28;;;;;;;10.07;3.75;;;19.30;48.40;;;;;;5074448;28;20091;-60
2022/04/12 11:33:57;;;;;;;5.05;3.35;;;19.20;48.60;;;;;;5098974;27;20028;-60
2022/04/12 11:36:22;;;;;;;5.53;3.53;;;19.10;49.00;;;;;;5101974;28;20074;-60
2022/04/12 11:38:48;;;;;;;3.83;3.10;;;19.00;48.50;;;;;;5094770;28;20483;-60
2022/04/12 11:41:15;;;;;;;5.93;3.53;;;19.00;48.70;;;;;;5092705;28;20482;-60
2022/04/12 11:43:40;;;;;;;4.55;3.22;;;19.00;49.10;;;;;;5085203;28;20111;-60
2022/04/12 11:46:06;;;;;;;7.80;4.15;;;19.20;49.30;;;;;;5096749;28;20640;-60
2022/04/12 11:48:32;;;;;;;6.57;4.63;;;19.50;49.00;;;;;;5105120;28;20051;-60
2022/04/12 11:51:04;;;;;;;5.80;3.92;;;19.70;48.80;;;;;;5096891;28;20057;-60
2022/04/12 11:53:30;;;;;;;6.40;4.37;;;19.80;48.50;;;;;;5099262;28;20589;-59
2022/04/12 11:56:03;;;;;;;5.53;4.20;;;20.00;48.50;;;;;;5096252;28;20024;-60
2022/04/12 11:58:30;;;;;;;6.93;4.18;;;20.20;48.00;;;;;;5094498;28;20040;-60
2022/04/12 12:00:57;;;;;;;5.43;4.20;;;20.40;47.70;;;;;;5103089;28;20022;-60
2022/04/12 12:03:24;;;;;;;8.95;4.90;;;20.50;47.40;;;;;;5101089;27;20132;-60
2022/04/12 12:05:49;;;;;;;7.40;4.88;;;20.80;47.30;;;;;;5088066;28;20374;-60
2022/04/12 12:08:20;;;;;;;8.70;4.57;;;20.90;46.40;;;;;;5080425;28;20032;-60
2022/04/12 12:10:46;;;;;;;8.30;5.28;;;21.00;46.40;;;;;;5104564;27;20071;-60
2022/04/12 12:13:13;;;;;;;6.88;4.15;;;21.10;46.10;;;;;;5092179;28;20067;-61
2022/04/12 12:15:39;;;;;;;7.90;4.57;;;21.20;46.30;;;;;;5079720;28;20039;-60
2022/04/12 12:18:07;;;;;;;8.23;4.90;;;21.20;45.50;;;;;;5108293;27;20613;-60
2022/04/12 12:20:35;;;;;;;6.28;4.63;;;21.30;45.60;;;;;;5090898;28;20033;-60
2022/04/12 12:23:06;;;;;;;8.85;4.70;;;21.30;45.50;;;;;;5102438;28;20020;-60
2022/04/12 12:25:48;;;;;;;8.03;5.00;;;21.40;45.60;;;;;;5097657;27;20048;-60
2022/04/12 12:28:22;;;;;;;7.07;4.50;;;21.40;44.90;;;;;;5099981;27;20031;-60
2022/04/12 12:30:49;;;;;;;8.20;5.10;;;21.30;45.30;;;;;;5099118;27;20023;-59
2022/04/12 12:33:16;;;;;;;6.35;4.65;;;21.10;45.30;;;;;;5125512;27;20059;-60
2022/04/12 12:35:46;;;;;;;6.43;4.55;;;21.00;46.00;;;;;;5108437;27;20401;-60
2022/04/12 12:38:14;;;;;;;7.72;5.32;;;21.00;46.40;;;;;;5130387;27;20470;-60
2022/04/12 12:40:42;;;;;;;8.18;5.32;;;21.00;46.10;;;;;;5118087;27;20122;-60
2022/04/12 12:43:14;;;;;;;8.43;5.28;;;21.00;46.10;;;;;;5097600;27;20066;-60
2022/04/12 12:45:45;;;;;;;6.20;4.70;;;20.90;46.30;;;;;;5106182;28;20395;-60
2022/04/12 12:48:13;;;;;;;8.02;5.53;;;20.90;46.40;;;;;;5111900;27;20024;-59
2022/04/12 12:50:40;;;;;;;8.65;5.82;;;21.00;46.00;;;;;;5131517;27;20438;-60